Time;durP1;ratioP1;P1;durP2;ratioP2;P2;SDS_P1;SDS_P2;PMS_P1;PMS_P2;Temp;Humidity;BMP_temperature;BMP_pressure;BME280_temperature;BME280_humidity;BME280_pressure;Samples;Min_cycle;Max_cycle;Signal;HPM_P1;HPM_P2
2024/04/04 00:01:15;;;;;;;6.97;5.50;;;11.40;99.90;;;;;;4896864;29;20450;-70
2024/04/04 00:03:42;;;;;;;7.00;5.10;;;11.40;99.90;;;;;;4896777;29;20493;-69
2024/04/04 00:06:09;;;;;;;7.17;5.20;;;11.40;99.90;;;;;;4896757;29;20500;-70
2024/04/04 00:08:35;;;;;;;6.60;4.77;;;11.40;99.90;;;;;;4881180;29;20450;-70
2024/04/04 00:11:13;;;;;;;7.23;4.57;;;11.30;99.90;;;;;;4896887;29;20445;-70
2024/04/04 00:13:41;;;;;;;7.43;5.10;;;11.30;99.90;;;;;;4881442;29;20516;-70
2024/04/04 00:16:08;;;;;;;9.10;5.17;;;11.30;99.90;;;;;;4896889;29;20449;-70
2024/04/04 00:18:35;;;;;;;7.53;5.27;;;11.30;99.90;;;;;;4880917;29;20477;-70
2024/04/04 00:21:02;;;;;;;6.80;4.67;;;11.30;99.90;;;;;;4896625;29;20449;-70
2024/04/04 00:23:29;;;;;;;7.53;5.33;;;11.30;99.90;;;;;;4896912;29;20838;-70
2024/04/04 00:25:56;;;;;;;6.07;4.60;;;11.40;99.90;;;;;;4912552;29;20464;-70
2024/04/04 00:28:24;;;;;;;9.57;4.97;;;11.30;99.90;;;;;;4896858;29;20464;-70
2024/04/04 00:30:51;;;;;;;8.70;5.00;;;11.30;99.90;;;;;;4897166;29;20489;-70
2024/04/04 00:33:17;;;;;;;5.40;4.27;;;11.30;99.90;;;;;;4899908;29;20484;-69
2024/04/04 00:35:45;;;;;;;6.67;4.60;;;11.30;99.90;;;;;;4899920;29;20449;-70
2024/04/04 00:38:11;;;;;;;8.37;5.50;;;11.30;99.90;;;;;;4899997;29;20509;-70
2024/04/04 00:40:38;;;;;;;8.33;5.10;;;11.30;99.90;;;;;;4899794;29;20441;-70
2024/04/04 00:43:05;;;;;;;7.37;4.90;;;11.30;99.90;;;;;;4899801;29;21058;-70
2024/04/04 00:45:34;;;;;;;11.50;5.27;;;11.30;99.90;;;;;;4884387;29;20465;-70
2024/04/04 00:48:00;;;;;;;8.03;5.40;;;11.30;99.90;;;;;;4899626;29;20532;-69
2024/04/04 00:50:29;;;;;;;9.10;6.20;;;11.30;99.90;;;;;;4899677;29;20504;-70
2024/04/04 00:52:57;;;;;;;5.20;4.67;;;11.30;99.90;;;;;;4915279;29;21046;-69
2024/04/04 00:55:24;;;;;;;5.30;4.77;;;11.30;99.90;;;;;;4899559;29;20453;-70
2024/04/04 00:57:52;;;;;;;9.93;4.70;;;11.30;99.90;;;;;;4899446;29;20449;-70
2024/04/04 01:00:19;;;;;;;5.20;4.70;;;11.30;99.90;;;;;;4899592;29;20951;-70
2024/04/04 01:02:47;;;;;;;7.17;5.00;;;11.30;99.90;;;;;;4899680;29;20560;-70
2024/04/04 01:05:16;;;;;;;10.17;5.93;;;11.20;99.90;;;;;;4899406;29;20453;-70
2024/04/04 01:07:44;;;;;;;8.60;5.10;;;11.30;99.90;;;;;;4899341;29;20508;-70
2024/04/04 01:10:11;;;;;;;7.40;4.67;;;11.20;99.90;;;;;;4899301;29;20448;-70
2024/04/04 01:12:38;;;;;;;4.97;4.47;;;11.20;99.90;;;;;;4899202;29;20469;-70
2024/04/04 01:15:06;;;;;;;8.50;5.43;;;11.30;99.90;;;;;;4899237;29;20452;-70
2024/04/04 01:17:33;;;;;;;6.80;5.37;;;11.20;99.90;;;;;;4899158;29;20513;-70
2024/04/04 01:20:02;;;;;;;6.60;5.20;;;11.20;99.90;;;;;;4898983;29;20472;-70
2024/04/04 01:22:28;;;;;;;6.87;4.97;;;11.20;99.90;;;;;;4899059;29;20480;-70
2024/04/04 01:24:56;;;;;;;6.70;5.13;;;11.20;99.90;;;;;;4899324;29;20460;-69
2024/04/04 01:27:23;;;;;;;6.13;4.60;;;11.20;99.90;;;;;;4899017;29;20548;-70
2024/04/04 01:29:50;;;;;;;7.33;6.00;;;11.20;99.90;;;;;;4898960;29;20485;-70
2024/04/04 01:32:17;;;;;;;7.87;5.60;;;11.20;99.90;;;;;;4898914;29;20528;-70
2024/04/04 01:34:44;;;;;;;10.07;5.80;;;11.20;99.90;;;;;;4898878;29;20457;-70
2024/04/04 01:37:11;;;;;;;7.33;5.17;;;11.20;99.90;;;;;;4898788;29;20441;-70
2024/04/04 01:39:38;;;;;;;6.83;5.60;;;11.10;99.90;;;;;;4899224;29;20473;-70
2024/04/04 01:42:06;;;;;;;7.37;5.30;;;11.20;99.90;;;;;;4898501;29;20521;-70
2024/04/04 01:44:33;;;;;;;7.13;4.90;;;11.10;99.90;;;;;;4898242;29;20531;-70
2024/04/04 01:46:59;;;;;;;9.10;4.90;;;11.10;99.90;;;;;;4898666;29;20532;-70
2024/04/04 01:49:27;;;;;;;8.43;4.97;;;11.10;99.90;;;;;;4898520;29;20453;-70
2024/04/04 01:51:53;;;;;;;7.00;5.37;;;11.10;99.90;;;;;;4898931;29;20469;-70
2024/04/04 01:54:21;;;;;;;6.97;4.70;;;11.10;99.90;;;;;;4898498;29;20458;-70
2024/04/04 01:56:47;;;;;;;8.07;4.40;;;11.10;99.90;;;;;;4883003;29;20477;-70
2024/04/04 01:59:16;;;;;;;7.77;4.60;;;11.10;99.90;;;;;;4898346;29;20476;-70
2024/04/04 02:01:42;;;;;;;9.70;5.63;;;11.10;99.90;;;;;;4898229;29;20475;-70
2024/04/04 02:04:09;;;;;;;5.53;4.47;;;11.10;99.90;;;;;;4898602;29;20528;-70
2024/04/04 02:06:35;;;;;;;10.33;4.40;;;11.10;99.90;;;;;;4902913;29;20497;-70
2024/04/04 02:09:04;;;;;;;7.70;4.53;;;11.10;99.90;;;;;;4900662;29;20446;-70
2024/04/04 02:11:30;;;;;;;6.37;4.10;;;11.10;99.90;;;;;;4899400;29;20453;-70
2024/04/04 02:13:58;;;;;;;7.50;4.20;;;11.10;99.90;;;;;;4898714;29;20456;-70
2024/04/04 02:16:25;;;;;;;7.70;4.37;;;11.10;99.90;;;;;;4898455;29;20490;-70
2024/04/04 02:18:53;;;;;;;5.20;4.00;;;11.10;99.90;;;;;;4882683;29;20480;-70
2024/04/04 02:21:19;;;;;;;8.73;3.80;;;11.10;99.90;;;;;;4898112;29;20856;-70
2024/04/04 02:23:47;;;;;;;6.40;4.30;;;11.10;99.90;;;;;;4898391;29;20445;-70
2024/04/04 02:26:13;;;;;;;8.00;4.10;;;11.10;99.90;;;;;;4897847;29;20457;-70
2024/04/04 02:28:41;;;;;;;11.53;4.83;;;11.10;99.90;;;;;;4898092;29;20444;-70
2024/04/04 02:31:07;;;;;;;8.77;6.07;;;11.10;99.90;;;;;;4898195;29;20878;-70
2024/04/04 02:33:36;;;;;;;9.60;5.17;;;11.10;99.90;;;;;;4897852;29;20488;-70
2024/04/04 02:36:03;;;;;;;7.83;4.90;;;11.10;99.90;;;;;;4882274;29;20453;-70
2024/04/04 02:38:31;;;;;;;7.40;4.27;;;11.10;99.90;;;;;;4897645;29;20449;-70
2024/04/04 02:40:58;;;;;;;7.83;4.47;;;11.10;99.90;;;;;;4897970;29;20450;-70
2024/04/04 02:43:25;;;;;;;8.77;4.90;;;11.10;99.90;;;;;;4897454;29;20868;-70
2024/04/04 02:45:59;;;;;;;6.30;4.80;;;11.10;99.90;;;;;;4881987;29;20434;-70
2024/04/04 02:48:26;;;;;;;5.73;4.20;;;11.10;99.90;;;;;;4897485;29;20597;-70
2024/04/04 02:50:58;;;;;;;11.70;5.20;;;11.00;99.90;;;;;;4897800;29;20880;-70
2024/04/04 02:53:26;;;;;;;8.30;4.47;;;11.00;99.90;;;;;;4897470;29;20841;-70
2024/04/04 02:55:56;;;;;;;9.00;5.00;;;11.00;99.90;;;;;;4881985;29;20480;-70
2024/04/04 02:58:24;;;;;;;5.43;4.00;;;11.00;99.90;;;;;;4881728;29;20465;-70
2024/04/04 03:00:50;;;;;;;8.63;4.20;;;11.00;99.90;;;;;;4897410;29;20468;-70
2024/04/04 03:03:18;;;;;;;6.37;4.33;;;11.00;99.90;;;;;;4897248;29;20513;-70
2024/04/04 03:05:44;;;;;;;8.40;3.80;;;10.90;99.90;;;;;;4912913;29;20553;-70
2024/04/04 03:08:14;;;;;;;9.20;5.20;;;10.90;99.90;;;;;;4897175;29;20449;-70
2024/04/04 03:10:41;;;;;;;6.97;3.87;;;10.90;99.90;;;;;;4897197;29;20456;-70
2024/04/04 03:13:08;;;;;;;6.20;3.57;;;10.90;99.90;;;;;;4913134;29;20983;-70
2024/04/04 03:15:35;;;;;;;6.87;3.70;;;10.90;99.90;;;;;;4897695;29;20497;-70
2024/04/04 03:18:02;;;;;;;9.20;3.80;;;10.80;99.90;;;;;;4897108;29;20461;-70
2024/04/04 03:20:29;;;;;;;7.43;3.90;;;10.80;99.90;;;;;;4896857;29;20473;-70
2024/04/04 03:22:57;;;;;;;8.63;4.10;;;10.80;99.90;;;;;;4897109;29;20468;-70
2024/04/04 03:25:25;;;;;;;7.80;3.63;;;10.80;99.90;;;;;;4881463;29;20453;-70
2024/04/04 03:27:53;;;;;;;6.80;3.80;;;10.80;99.90;;;;;;4897127;29;20786;-70
2024/04/04 03:30:19;;;;;;;6.23;4.70;;;10.70;99.90;;;;;;4897023;29;20505;-70
2024/04/04 03:32:46;;;;;;;8.17;3.67;;;10.70;99.90;;;;;;4896903;29;20473;-70
2024/04/04 03:35:13;;;;;;;8.47;2.90;;;10.70;99.90;;;;;;4897008;29;20449;-70
2024/04/04 03:37:40;;;;;;;9.33;4.47;;;10.60;99.90;;;;;;4897444;29;20449;-70
2024/04/04 03:40:09;;;;;;;8.33;3.20;;;10.60;99.90;;;;;;4897149;29;21013;-70
2024/04/04 03:42:37;;;;;;;7.00;3.33;;;10.60;99.90;;;;;;4896848;29;20492;-70
2024/04/04 03:45:05;;;;;;;9.37;3.40;;;10.60;99.90;;;;;;4897003;29;20461;-70
2024/04/04 03:47:33;;;;;;;6.13;3.80;;;10.50;99.90;;;;;;4881226;29;20468;-70
2024/04/04 03:50:01;;;;;;;7.93;3.40;;;10.50;99.90;;;;;;4881239;29;20453;-70
2024/04/04 03:52:29;;;;;;;7.33;3.70;;;10.50;99.90;;;;;;4896723;29;20481;-70
2024/04/04 03:54:57;;;;;;;6.70;3.30;;;10.40;99.90;;;;;;4897505;29;20449;-70
2024/04/04 03:57:24;;;;;;;8.53;3.43;;;10.40;99.90;;;;;;4881468;29;20480;-70
2024/04/04 03:59:56;;;;;;;4.60;2.90;;;10.40;99.90;;;;;;4897150;29;20475;-70
2024/04/04 04:02:22;;;;;;;7.83;3.53;;;10.30;99.90;;;;;;4896958;29;20512;-70
2024/04/04 04:04:50;;;;;;;6.93;2.80;;;10.30;99.90;;;;;;4896740;29;20944;-70
2024/04/04 04:07:16;;;;;;;7.23;3.13;;;10.20;99.90;;;;;;4899721;29;20814;-70
2024/04/04 04:09:43;;;;;;;9.67;4.17;;;10.20;99.90;;;;;;4901078;29;20807;-70
2024/04/04 04:12:10;;;;;;;5.47;3.07;;;10.20;99.90;;;;;;4884816;29;20828;-70
2024/04/04 04:14:37;;;;;;;6.30;2.90;;;10.20;99.90;;;;;;4900458;29;20505;-70
2024/04/04 04:17:05;;;;;;;6.00;3.03;;;10.10;99.90;;;;;;4900450;29;20498;-70
2024/04/04 04:19:32;;;;;;;6.37;2.90;;;10.10;99.90;;;;;;4900360;29;20477;-70
2024/04/04 04:21:58;;;;;;;4.87;2.40;;;10.10;99.90;;;;;;4900010;29;20473;-70
2024/04/04 04:24:26;;;;;;;6.30;2.73;;;10.10;99.90;;;;;;4900434;29;20453;-70
2024/04/04 04:26:53;;;;;;;5.80;2.90;;;10.00;99.90;;;;;;4900396;29;20455;-70
2024/04/04 04:29:20;;;;;;;4.93;2.57;;;10.00;99.90;;;;;;4900007;29;20445;-70
2024/04/04 04:31:47;;;;;;;6.70;3.03;;;10.00;99.90;;;;;;4899877;29;20830;-70
2024/04/04 04:34:15;;;;;;;6.97;3.33;;;9.90;99.90;;;;;;4899946;29;20457;-70
2024/04/04 04:36:54;;;;;;;10.37;3.00;;;9.90;99.90;;;;;;4899905;29;20445;-70
2024/04/04 04:39:21;;;;;;;6.57;2.80;;;9.90;99.90;;;;;;4900089;29;20543;-70
2024/04/04 04:41:48;;;;;;;6.50;3.23;;;9.90;99.90;;;;;;4900327;29;20509;-70
2024/04/04 04:44:14;;;;;;;6.17;2.83;;;9.90;99.90;;;;;;4899818;29;20956;-70
2024/04/04 04:46:42;;;;;;;7.43;2.90;;;9.80;99.90;;;;;;4899678;29;20455;-70
2024/04/04 04:49:08;;;;;;;6.17;2.50;;;9.80;99.90;;;;;;4899655;29;20504;-70
2024/04/04 04:51:36;;;;;;;6.17;2.80;;;9.80;99.90;;;;;;4899913;29;20472;-70
2024/04/04 04:54:03;;;;;;;5.47;2.70;;;9.80;99.90;;;;;;4901097;29;20509;-70
2024/04/04 04:56:30;;;;;;;7.03;2.83;;;9.80;99.90;;;;;;4902879;29;20447;-69
2024/04/04 04:58:56;;;;;;;7.93;2.63;;;9.70;99.90;;;;;;4884841;29;21031;-69
2024/04/04 05:01:24;;;;;;;6.27;2.60;;;9.70;99.90;;;;;;4900926;29;20935;-69
2024/04/04 05:03:51;;;;;;;6.83;3.57;;;9.70;99.90;;;;;;4916217;29;20457;-69
2024/04/04 05:06:18;;;;;;;4.60;1.93;;;9.70;99.90;;;;;;4900173;29;20452;-69
2024/04/04 05:08:46;;;;;;;7.23;2.67;;;9.70;99.90;;;;;;4900019;29;20453;-69
2024/04/04 05:11:15;;;;;;;4.90;2.40;;;9.70;99.90;;;;;;4900337;29;20450;-69
2024/04/04 05:13:41;;;;;;;6.63;2.80;;;9.70;99.90;;;;;;4899783;29;20450;-69
2024/04/04 05:16:08;;;;;;;4.40;2.37;;;9.70;99.90;;;;;;4900259;29;20448;-69
2024/04/04 05:18:35;;;;;;;6.80;3.17;;;9.60;99.90;;;;;;4898352;29;20464;-69
2024/04/04 05:21:05;;;;;;;4.40;2.17;;;9.60;99.90;;;;;;4899309;29;20481;-69
2024/04/04 05:23:31;;;;;;;7.47;2.40;;;9.60;99.90;;;;;;4899344;29;20598;-69
2024/04/04 05:26:00;;;;;;;5.67;2.70;;;9.60;99.90;;;;;;4884231;29;20458;-69
2024/04/04 05:28:29;;;;;;;4.50;2.70;;;9.60;99.90;;;;;;4899477;29;20441;-70
2024/04/04 05:30:56;;;;;;;5.03;2.53;;;9.60;99.90;;;;;;4914594;29;20445;-70
2024/04/04 05:33:24;;;;;;;7.50;2.77;;;9.70;99.90;;;;;;4883850;29;20999;-70
2024/04/04 05:35:53;;;;;;;6.33;2.70;;;9.70;99.90;;;;;;4899275;29;20804;-70
2024/04/04 05:38:20;;;;;;;5.83;2.50;;;9.70;99.90;;;;;;4899011;29;20477;-70
2024/04/04 05:40:47;;;;;;;6.50;2.80;;;9.70;99.90;;;;;;4898841;29;20485;-70
2024/04/04 05:43:15;;;;;;;6.33;2.27;;;9.70;99.90;;;;;;4899184;29;21034;-70
2024/04/04 05:45:42;;;;;;;4.07;2.40;;;9.70;99.90;;;;;;4914442;29;20456;-70
2024/04/04 05:48:08;;;;;;;5.70;2.27;;;9.70;99.90;;;;;;4900019;29;20441;-70
2024/04/04 05:50:35;;;;;;;7.10;2.77;;;9.70;99.90;;;;;;4883799;29;20441;-70
2024/04/04 05:53:02;;;;;;;4.77;2.20;;;9.70;99.90;;;;;;4898978;29;20521;-70
2024/04/04 05:55:29;;;;;;;9.20;3.87;;;9.70;99.90;;;;;;4898646;29;20449;-70
2024/04/04 05:57:55;;;;;;;7.40;3.20;;;9.80;99.90;;;;;;4898562;29;20865;-70
2024/04/04 06:00:24;;;;;;;4.47;2.37;;;9.80;99.90;;;;;;4899102;29;20477;-70
2024/04/04 06:02:52;;;;;;;5.77;3.30;;;9.80;99.90;;;;;;4898788;29;20465;-70
2024/04/04 06:05:20;;;;;;;9.07;3.70;;;9.80;99.90;;;;;;4898675;29;20951;-69
2024/04/04 06:07:46;;;;;;;11.90;3.63;;;9.80;99.90;;;;;;4898678;29;20504;-70
2024/04/04 06:10:14;;;;;;;5.30;3.07;;;9.80;99.90;;;;;;4898530;29;20529;-70
2024/04/04 06:12:40;;;;;;;4.40;1.83;;;9.90;99.90;;;;;;4898388;29;20475;-70
2024/04/04 06:15:10;;;;;;;4.87;2.23;;;9.90;99.90;;;;;;4914379;29;20529;-70
2024/04/04 06:17:39;;;;;;;7.50;2.87;;;9.90;99.90;;;;;;4898191;29;20943;-70
2024/04/04 06:20:08;;;;;;;6.10;2.50;;;9.90;99.90;;;;;;4898452;29;20479;-70
2024/04/04 06:22:34;;;;;;;5.93;2.90;;;9.90;99.90;;;;;;4898231;29;20986;-70
2024/04/04 06:25:03;;;;;;;8.97;4.80;;;10.00;99.90;;;;;;4882569;29;20454;-70
2024/04/04 06:27:29;;;;;;;5.90;2.43;;;10.00;99.90;;;;;;4898099;29;20456;-69
2024/04/04 06:29:56;;;;;;;5.60;2.40;;;10.00;99.90;;;;;;4882348;29;20446;-70
2024/04/04 06:32:23;;;;;;;6.13;2.30;;;10.10;99.90;;;;;;4898546;29;20560;-70
2024/04/04 06:34:52;;;;;;;12.03;2.73;;;10.20;99.90;;;;;;4898811;29;20864;-69
2024/04/04 06:37:18;;;;;;;3.73;1.90;;;10.20;99.90;;;;;;4897939;29;20449;-70
2024/04/04 06:39:46;;;;;;;4.50;2.00;;;10.30;99.90;;;;;;4882249;29;20484;-69
2024/04/04 06:42:12;;;;;;;6.00;2.20;;;10.30;99.90;;;;;;4897965;29;20548;-69
2024/04/04 06:44:40;;;;;;;4.83;2.37;;;10.30;99.90;;;;;;4897995;29;20473;-69
2024/04/04 06:47:06;;;;;;;5.50;2.30;;;10.30;99.90;;;;;;4913876;29;20446;-70
2024/04/04 06:49:34;;;;;;;5.17;2.50;;;10.40;99.90;;;;;;4897788;29;20505;-69
2024/04/04 06:52:01;;;;;;;10.00;5.53;;;10.40;99.90;;;;;;4881943;29;20882;-70
2024/04/04 06:54:29;;;;;;;6.50;2.90;;;10.50;99.90;;;;;;4898238;29;20459;-69
2024/04/04 06:56:57;;;;;;;6.53;3.00;;;10.50;99.90;;;;;;4897999;29;20496;-70
2024/04/04 06:59:24;;;;;;;4.80;2.70;;;10.50;99.90;;;;;;4897441;29;20461;-70
2024/04/04 07:01:50;;;;;;;7.00;3.17;;;10.60;99.90;;;;;;4882038;29;20549;-70
2024/04/04 07:04:18;;;;;;;9.03;3.63;;;10.60;99.90;;;;;;4913022;29;20460;-71
2024/04/04 07:06:45;;;;;;;6.07;2.50;;;10.60;99.90;;;;;;4897564;29;20494;-70
2024/04/04 07:09:14;;;;;;;5.90;2.73;;;10.60;99.90;;;;;;4897753;29;20951;-70
2024/04/04 07:11:40;;;;;;;6.57;2.73;;;10.60;99.90;;;;;;4897363;29;20461;-70
2024/04/04 07:14:07;;;;;;;5.40;3.30;;;10.70;99.90;;;;;;4881986;29;20997;-69
2024/04/04 07:16:33;;;;;;;9.40;3.10;;;10.70;99.90;;;;;;4897466;29;20485;-69
2024/04/04 07:19:01;;;;;;;7.70;3.00;;;10.70;99.90;;;;;;4897918;29;20453;-70
2024/04/04 07:21:27;;;;;;;4.50;2.90;;;10.70;99.90;;;;;;4897253;29;20484;-70
2024/04/04 07:23:54;;;;;;;4.53;3.00;;;10.70;99.90;;;;;;4897482;29;20449;-70
2024/04/04 07:26:22;;;;;;;6.30;2.80;;;10.80;99.90;;;;;;4897541;29;21006;-70
2024/04/04 07:28:49;;;;;;;7.93;2.70;;;10.80;99.90;;;;;;4897277;29;20517;-70
2024/04/04 07:31:15;;;;;;;10.07;3.40;;;10.80;99.90;;;;;;4897058;29;20481;-70
2024/04/04 07:33:43;;;;;;;7.10;3.10;;;10.80;99.90;;;;;;4897090;29;20453;-70
2024/04/04 07:36:09;;;;;;;6.93;3.23;;;10.80;99.90;;;;;;4897174;29;20469;-69
2024/04/04 07:38:37;;;;;;;11.30;4.93;;;10.80;99.90;;;;;;4897030;29;20449;-70
2024/04/04 07:41:06;;;;;;;6.57;4.60;;;10.80;99.90;;;;;;4898107;29;20536;-70
2024/04/04 07:43:35;;;;;;;5.30;3.47;;;10.80;99.90;;;;;;4901457;29;20919;-70
2024/04/04 07:46:01;;;;;;;6.60;3.03;;;10.80;99.90;;;;;;4901898;29;20434;-70
2024/04/04 07:48:29;;;;;;;5.60;3.60;;;10.90;99.90;;;;;;4901703;29;20453;-70
2024/04/04 07:50:55;;;;;;;6.30;2.77;;;10.90;99.90;;;;;;4901572;29;20448;-70
2024/04/04 07:53:23;;;;;;;6.50;2.77;;;10.90;99.90;;;;;;4901457;29;20472;-69
2024/04/04 07:55:50;;;;;;;5.57;3.03;;;10.90;99.90;;;;;;4901620;29;20956;-70
2024/04/04 07:58:17;;;;;;;4.97;3.00;;;10.90;99.90;;;;;;4885716;29;20540;-70
2024/04/04 08:00:45;;;;;;;3.33;2.70;;;10.90;99.90;;;;;;4901637;29;20480;-70
2024/04/04 08:03:12;;;;;;;6.93;3.40;;;10.90;99.90;;;;;;4901949;29;20815;-70
2024/04/04 08:05:38;;;;;;;3.87;2.97;;;10.90;99.90;;;;;;4901316;29;20457;-70
2024/04/04 08:08:07;;;;;;;5.47;3.70;;;10.90;99.90;;;;;;4901181;29;20441;-70
2024/04/04 08:10:33;;;;;;;4.37;3.20;;;10.90;99.90;;;;;;4901167;29;20491;-70
2024/04/04 08:13:01;;;;;;;6.37;3.60;;;10.90;99.90;;;;;;4901658;29;20464;-69
2024/04/04 08:15:28;;;;;;;5.63;3.20;;;10.90;99.90;;;;;;4900932;29;20935;-70
2024/04/04 08:17:57;;;;;;;7.27;3.87;;;10.90;99.90;;;;;;4900922;29;20452;-70
2024/04/04 08:20:23;;;;;;;5.00;3.13;;;10.90;99.90;;;;;;4901285;29;20483;-70
2024/04/04 08:22:51;;;;;;;4.63;3.27;;;10.90;99.90;;;;;;4900708;29;20476;-70
2024/04/04 08:25:19;;;;;;;5.70;3.23;;;10.90;99.90;;;;;;4900932;29;20508;-70
2024/04/04 08:27:46;;;;;;;7.20;6.00;;;10.90;99.90;;;;;;4900468;29;20449;-70
2024/04/04 08:30:13;;;;;;;5.00;3.60;;;10.90;99.90;;;;;;4885083;29;20460;-70
2024/04/04 08:32:40;;;;;;;6.43;3.67;;;10.90;99.90;;;;;;4901268;29;20828;-70
2024/04/04 08:35:09;;;;;;;4.80;3.10;;;10.90;99.90;;;;;;4884887;29;20876;-70
2024/04/04 08:37:36;;;;;;;5.10;3.60;;;11.00;99.90;;;;;;4884748;29;20450;-70
2024/04/04 08:40:03;;;;;;;5.33;3.80;;;11.00;99.90;;;;;;4900399;29;20488;-70
2024/04/04 08:42:31;;;;;;;5.47;4.20;;;11.00;99.90;;;;;;4900304;29;20473;-70
2024/04/04 08:44:58;;;;;;;7.17;4.17;;;11.00;99.90;;;;;;4900501;29;20460;-69
2024/04/04 08:47:27;;;;;;;4.57;3.73;;;11.00;99.90;;;;;;4899797;29;20456;-70
2024/04/04 08:49:55;;;;;;;4.20;3.80;;;11.10;99.90;;;;;;4899703;29;20820;-70
2024/04/04 08:52:25;;;;;;;6.57;4.50;;;11.10;99.90;;;;;;4899299;29;20468;-70
2024/04/04 08:54:51;;;;;;;6.27;4.50;;;11.10;99.90;;;;;;4899631;29;20955;-70
2024/04/04 08:57:21;;;;;;;5.27;4.00;;;11.10;99.90;;;;;;4899883;29;20532;-70
2024/04/04 08:59:54;;;;;;;5.20;4.80;;;11.10;99.90;;;;;;4899683;29;20429;-70
2024/04/04 09:02:22;;;;;;;5.27;4.67;;;11.20;99.90;;;;;;4900051;29;20880;-70
2024/04/04 09:04:48;;;;;;;5.53;4.87;;;11.20;99.90;;;;;;4883748;29;20829;-70
2024/04/04 09:07:15;;;;;;;5.23;4.83;;;11.30;99.90;;;;;;4899939;29;20445;-69
2024/04/04 09:09:45;;;;;;;6.00;5.40;;;11.30;99.90;;;;;;4899464;29;20453;-69
2024/04/04 09:12:16;;;;;;;7.97;6.30;;;11.30;99.90;;;;;;4883627;29;20477;-70
2024/04/04 09:14:42;;;;;;;6.20;5.80;;;11.30;99.90;;;;;;4899507;29;20791;-69
2024/04/04 09:17:10;;;;;;;6.07;5.57;;;11.40;99.90;;;;;;4899542;29;20445;-69
2024/04/04 09:19:36;;;;;;;5.90;5.30;;;11.40;99.90;;;;;;4899692;29;20450;-69
2024/04/04 09:22:07;;;;;;;6.80;6.27;;;11.40;99.90;;;;;;4899177;29;20991;-69
2024/04/04 09:24:33;;;;;;;7.70;6.17;;;11.50;99.90;;;;;;4899355;29;20442;-70
2024/04/04 09:27:02;;;;;;;6.40;5.80;;;11.50;99.90;;;;;;4899576;29;20824;-69
2024/04/04 09:29:30;;;;;;;8.40;6.93;;;11.50;99.90;;;;;;4899200;29;20453;-70
2024/04/04 09:31:58;;;;;;;7.50;6.80;;;11.60;99.90;;;;;;4898993;29;20876;-70
2024/04/04 09:34:27;;;;;;;6.70;6.13;;;11.60;99.90;;;;;;4899516;29;20499;-69
2024/04/04 09:36:54;;;;;;;6.47;5.90;;;11.60;99.90;;;;;;4898815;29;20457;-69
2024/04/04 09:39:23;;;;;;;7.10;6.50;;;11.70;99.90;;;;;;4899095;29;20457;-69
2024/04/04 09:41:53;;;;;;;7.17;6.60;;;11.70;99.90;;;;;;4899028;29;20485;-69
2024/04/04 09:44:21;;;;;;;6.73;6.23;;;11.70;99.90;;;;;;4898583;29;20525;-70
2024/04/04 09:46:49;;;;;;;7.20;6.60;;;11.70;99.90;;;;;;4883220;29;20500;-69
2024/04/04 09:49:18;;;;;;;8.10;7.40;;;11.70;99.90;;;;;;4898590;29;20453;-69
2024/04/04 09:51:49;;;;;;;7.67;7.07;;;11.80;99.90;;;;;;4898576;29;20465;-69
2024/04/04 09:54:17;;;;;;;7.80;7.20;;;11.80;99.90;;;;;;4899032;29;20516;-69
2024/04/04 09:56:44;;;;;;;7.50;7.00;;;11.80;99.90;;;;;;4914274;29;20465;-69
2024/04/04 09:59:11;;;;;;;8.37;7.50;;;11.90;99.90;;;;;;4898448;29;20449;-69
2024/04/04 10:01:39;;;;;;;7.03;6.53;;;11.90;99.90;;;;;;4898509;29;20517;-69
2024/04/04 10:04:07;;;;;;;8.20;7.50;;;11.90;99.90;;;;;;4897884;29;20863;-69
2024/04/04 10:06:35;;;;;;;8.13;7.33;;;11.90;99.90;;;;;;4898305;29;20465;-69
2024/04/04 10:09:15;;;;;;;8.10;7.30;;;11.90;99.90;;;;;;4898230;29;20477;-69
2024/04/04 10:11:42;;;;;;;7.97;7.27;;;12.00;99.90;;;;;;4898363;29;20476;-69
2024/04/04 10:14:16;;;;;;;8.27;7.70;;;12.00;99.90;;;;;;4882521;29;20449;-69
2024/04/04 10:16:50;;;;;;;9.10;8.40;;;12.10;99.90;;;;;;4898252;29;20532;-69
2024/04/04 10:19:19;;;;;;;8.93;8.23;;;12.10;99.90;;;;;;4898269;29;20465;-69
2024/04/04 10:21:46;;;;;;;9.30;8.60;;;12.10;99.90;;;;;;4898123;29;20496;-69
2024/04/04 10:24:20;;;;;;;10.57;9.67;;;12.10;99.90;;;;;;4898497;29;20817;-69
2024/04/04 10:26:51;;;;;;;9.10;8.40;;;12.10;99.90;;;;;;4897906;29;20437;-69
2024/04/04 10:29:18;;;;;;;8.40;7.80;;;12.20;99.90;;;;;;4898072;29;20437;-69
2024/04/04 10:31:45;;;;;;;9.00;8.30;;;12.20;99.90;;;;;;4897726;29;20469;-69
2024/04/04 10:34:14;;;;;;;7.60;7.10;;;12.20;99.90;;;;;;4898065;29;20532;-69
2024/04/04 10:36:42;;;;;;;8.90;8.30;;;12.30;99.90;;;;;;4898021;29;20453;-69
2024/04/04 10:39:12;;;;;;;8.50;7.90;;;12.30;99.90;;;;;;4897987;29;20457;-69
2024/04/04 10:41:40;;;;;;;8.93;8.23;;;12.30;99.90;;;;;;4897804;29;20481;-69
2024/04/04 10:44:13;;;;;;;8.80;8.10;;;12.30;99.90;;;;;;4897606;29;20839;-69
2024/04/04 10:46:42;;;;;;;8.27;7.70;;;12.40;99.90;;;;;;4897397;29;20466;-69
2024/04/04 10:49:09;;;;;;;8.90;8.30;;;12.40;99.90;;;;;;4913195;29;20487;-69
2024/04/04 10:51:38;;;;;;;9.00;8.40;;;12.50;99.90;;;;;;4897434;29;20477;-69
2024/04/04 10:54:04;;;;;;;8.80;8.10;;;12.50;99.90;;;;;;4897475;29;20513;-69
2024/04/04 10:56:32;;;;;;;8.40;7.80;;;12.60;99.90;;;;;;4897331;29;20517;-69
2024/04/04 10:58:59;;;;;;;8.50;7.90;;;12.70;99.90;;;;;;4913370;29;20448;-69
2024/04/04 11:01:27;;;;;;;8.27;7.63;;;12.70;99.90;;;;;;4897298;29;20479;-69
2024/04/04 11:03:55;;;;;;;8.70;8.10;;;12.80;99.90;;;;;;4897326;29;20452;-69
2024/04/04 11:06:27;;;;;;;8.63;8.00;;;12.90;99.90;;;;;;4897396;29;20456;-69
2024/04/04 11:08:55;;;;;;;8.30;7.70;;;13.00;99.90;;;;;;4897936;29;20437;-69
2024/04/04 11:11:24;;;;;;;8.80;8.10;;;13.00;99.90;;;;;;4881636;29;20450;-70
2024/04/04 11:13:51;;;;;;;8.03;7.43;;;13.00;99.90;;;;;;4897836;29;20456;-70
2024/04/04 11:16:20;;;;;;;9.37;8.67;;;13.00;99.90;;;;;;4897285;29;20509;-69
2024/04/04 11:18:47;;;;;;;8.90;8.20;;;13.10;99.90;;;;;;4881620;29;20456;-69
2024/04/04 11:21:15;;;;;;;9.80;9.03;;;13.10;99.90;;;;;;4897094;29;20481;-69
2024/04/04 11:23:42;;;;;;;9.07;8.47;;;13.20;99.90;;;;;;4881588;29;20504;-69
2024/04/04 11:26:10;;;;;;;8.83;8.20;;;13.20;99.90;;;;;;4897148;29;20449;-69
2024/04/04 11:28:37;;;;;;;9.77;9.17;;;13.20;99.90;;;;;;4897342;29;20943;-70
2024/04/04 11:31:04;;;;;;;9.43;8.83;;;13.20;99.90;;;;;;4881185;29;20468;-69
2024/04/04 11:33:32;;;;;;;9.20;8.30;;;13.30;99.90;;;;;;4897198;29;20548;-69
2024/04/04 11:36:00;;;;;;;8.77;8.17;;;13.30;99.90;;;;;;4897006;29;20453;-69
2024/04/04 11:38:27;;;;;;;9.00;8.33;;;13.30;99.90;;;;;;4912727;29;20452;-70
2024/04/04 11:40:53;;;;;;;7.73;7.23;;;13.30;99.90;;;;;;4896737;29;20477;-70
2024/04/04 11:43:23;;;;;;;8.33;7.63;;;13.30;99.90;;;;;;4896791;29;20465;-70
2024/04/04 11:45:50;;;;;;;8.97;8.30;;;13.30;99.90;;;;;;4881202;29;20457;-70
2024/04/04 11:48:17;;;;;;;8.50;7.90;;;13.30;99.90;;;;;;4896796;29;20830;-69
2024/04/04 11:50:44;;;;;;;7.50;7.00;;;13.30;99.90;;;;;;4896887;29;20852;-69
2024/04/04 11:53:11;;;;;;;7.63;7.13;;;13.30;99.90;;;;;;4881101;29;20473;-69
2024/04/04 11:55:38;;;;;;;7.67;7.10;;;13.30;99.90;;;;;;4912367;29;20461;-69
2024/04/04 11:58:05;;;;;;;7.73;7.13;;;13.20;99.90;;;;;;4896894;29;20484;-69
2024/04/04 12:00:33;;;;;;;6.93;6.33;;;13.20;99.90;;;;;;4881070;29;20457;-69
2024/04/04 12:03:03;;;;;;;6.67;6.27;;;13.20;99.90;;;;;;4880986;29;20474;-70
2024/04/04 12:05:31;;;;;;;7.07;6.57;;;13.20;99.90;;;;;;4897227;29;20453;-70
2024/04/04 12:07:58;;;;;;;5.93;5.53;;;13.20;99.90;;;;;;4896997;29;20809;-70
2024/04/04 12:10:25;;;;;;;6.27;5.60;;;13.30;99.90;;;;;;4896622;29;20517;-69
2024/04/04 12:12:54;;;;;;;5.77;5.37;;;13.40;99.90;;;;;;4880975;29;21007;-70
2024/04/04 12:15:20;;;;;;;5.93;5.50;;;13.50;99.90;;;;;;4896664;29;20449;-70
2024/04/04 12:17:52;;;;;;;5.77;5.27;;;13.60;99.90;;;;;;4896709;29;20814;-70
2024/04/04 12:20:19;;;;;;;6.20;5.70;;;13.70;99.90;;;;;;4880928;29;20453;-70
2024/04/04 12:22:47;;;;;;;5.23;4.83;;;13.80;99.90;;;;;;4896474;29;20487;-70
2024/04/04 12:25:15;;;;;;;6.17;5.60;;;13.80;99.90;;;;;;4881002;29;20453;-69
2024/04/04 12:27:43;;;;;;;7.27;5.00;;;13.80;99.90;;;;;;4882843;29;20460;-69
2024/04/04 12:30:10;;;;;;;5.07;4.63;;;13.80;99.90;;;;;;4900063;29;20445;-69
2024/04/04 12:32:37;;;;;;;5.30;4.80;;;13.90;99.90;;;;;;4884243;29;20469;-70
2024/04/04 12:35:06;;;;;;;5.50;5.00;;;13.90;99.90;;;;;;4900003;29;20488;-70
2024/04/04 12:37:34;;;;;;;7.10;4.77;;;14.00;99.90;;;;;;4899878;29;20457;-69
2024/04/04 12:40:01;;;;;;;4.57;4.17;;;14.00;99.90;;;;;;4899897;29;20479;-70
2024/04/04 12:42:29;;;;;;;4.70;4.20;;;14.00;99.90;;;;;;4915381;29;20485;-70
2024/04/04 12:44:55;;;;;;;5.63;4.43;;;14.00;99.90;;;;;;4900166;29;20974;-70
2024/04/04 12:47:22;;;;;;;5.70;4.60;;;14.00;99.90;;;;;;4915776;29;20851;-70
2024/04/04 12:49:48;;;;;;;6.30;4.80;;;14.00;99.90;;;;;;4899792;29;20453;-70